Impacts METAR Board
IDs:

KMEM - Memphis Intl, TN, US

Updated at: 0000 UTC 31 May 2020
Potential Impact None Slight Moderate High
Time 30/12Z 30/13Z 30/14Z 30/15Z 30/16Z 30/17Z 30/18Z 30/19Z 30/20Z 30/21Z 30/22Z 30/23Z 31/00Z
Temp67 70 73 76 78 80 82 82 83 83 82 82 80
Dewpt58 55 54 55 54 53 55 54 53 51 51 51 49
Altim30.15 30.16 30.17 30.17 30.17 30.16 30.14 30.13 30.11 30.10 30.09 30.08 30.09
VIS10 10 10 10 10 10 10 10 10 10 10 10 10
CIG-- -- -- -- -- -- -- -- -- -- -- -- --
CoverFEWCLRCLRCLRCLRFEWFEWFEWFEWFEWFEWCLRCLR
FltCatVFRVFRVFRVFRVFRVFRVFRVFRVFRVFRVFRVFRVFR
WX--------------------------
WDir405050402040350330203603601020
WSpd6 10 10 6 10 7 11 10 6 9 9 8 13
WGst-- -- -- -- -- -- 14 16 -- -- -- 16 --
Raw hourly METARs
KMEM 301154Z 04006KT 10SM FEW075 19/14 A3015 RMK AO2 SLP207 T01940144 10211 20172 53014
KMEM 301254Z 05010KT 10SM CLR 21/13 A3016 RMK AO2 SLP211 T02110128
KMEM 301354Z 05010KT 10SM CLR 23/12 A3017 RMK AO2 SLP214 T02280122
KMEM 301454Z 04006KT 10SM CLR 24/13 A3017 RMK AO2 SLP213 T02440128 50005
KMEM 301554Z 02010KT 10SM CLR 26/12 A3017 RMK AO2 SLP213 T02560122
KMEM 301654Z 04007KT 10SM FEW200 27/12 A3016 RMK AO2 SLP210 T02670117
KMEM 301754Z 35011G14KT 10SM FEW040 28/13 A3014 RMK AO2 SLP203 T02780128 10278 20194 58008
KMEM 301854Z 33010G16KT 10SM FEW040 28/12 A3013 RMK AO2 SLP199 T02780122
KMEM 301954Z 02006KT 10SM FEW150 28/12 A3011 RMK AO2 SLP191 T02830117
KMEM 302054Z 36009KT 10SM FEW150 28/11 A3010 RMK AO2 SLP189 T02830106 56014
KMEM 302154Z 36009KT 10SM FEW250 28/11 A3009 RMK AO2 SLP187 T02780106
KMEM 302254Z 01008G16KT 10SM CLR 28/11 A3008 RMK AO2 SLP184 T02780106
KMEM 302354Z 02013KT 10SM CLR 27/09 A3009 RMK AO2 SLP185 T02670094 10289 20267 55005



Page loaded:  00:54 UTC  |   05:54 PM Pacific  |   06:54 PM Mountain  |   07:54 PM Central  |   08:54 PM Eastern

 

ADVISORIES

FORECASTS

FORECASTS

OBSERVATIONS

USER TOOLS

ABOUT US